Current | Forecast
Updated: 7:30 AM EEST on April 30, 2017
Observed at Gostomel, Belarus
Temperature 52°F
Humidity 76%
Dew Point 45°F
Wind NNE at 7 mph
Pressure 30.01 in (Rising)
Conditions Unknown
Visibility 6.2 miles
UV N/A
Clouds
Yesterday's Maximum 77°F
Yesterday's Minimum 55°F approx.
Yesterday's Cooling Degree Days 1 approx.
Sunrise5:32 AM +03
Sunset8:20 PM +03
Moon Rise8:53 AM +03
Moon Set
Moon PhaseMoon Phase
Waxing Crescent
Raw METARMETAR UKKM 300430Z AUTO 02003MPS 9999 ///110/// 11/07 Q1016


Monday
. High: 64° F.
Tuesday
. High: 66° F.
Wednesday
. High: 69° F.
Thursday
. High: 71° F.
Friday
. High: 62° F.
Saturday
. High: 64° F.
Sunday
. High: 66° F.
Monday
. High: 75° F.

Units: English | Metric

Find the Weather for any City, State or Zipcode, or Country:

U.S. State List | Severe Weather | Tropical Storms | Ski Conditions
United States | Canada | Central America | South America | Asia | Europe | Australia | Africa | Islands

Weather Underground

© Copyright 2017
The Weather Company, LLC